sensor_id;sensor_type;location;lat;lon;timestamp;pressure;altitude;pressure_sealevel;temperature;humidity
39739;BME280;25422;48.286;8.484;2022-07-25T00:01:07;94095.88;;;16.88;100.00
39739;BME280;25422;48.286;8.484;2022-07-25T00:03:33;94093.88;;;16.83;100.00
39739;BME280;25422;48.286;8.484;2022-07-25T00:05:58;94099.63;;;16.60;100.00
39739;BME280;25422;48.286;8.484;2022-07-25T00:08:23;94097.19;;;16.59;100.00
39739;BME280;25422;48.286;8.484;2022-07-25T00:10:49;94091.31;;;16.57;100.00
39739;BME280;25422;48.286;8.484;2022-07-25T00:13:14;94087.06;;;16.56;100.00
39739;BME280;25422;48.286;8.484;2022-07-25T00:15:39;94082.63;;;16.49;100.00
39739;BME280;25422;48.286;8.484;2022-07-25T00:18:05;94082.66;;;16.43;100.00
39739;BME280;25422;48.286;8.484;2022-07-25T00:20:30;94080.41;;;16.33;100.00
39739;BME280;25422;48.286;8.484;2022-07-25T00:22:55;94078.81;;;16.32;100.00
39739;BME280;25422;48.286;8.484;2022-07-25T00:25:21;94071.28;;;16.29;100.00
39739;BME280;25422;48.286;8.484;2022-07-25T00:27:46;94073.34;;;16.20;100.00
39739;BME280;25422;48.286;8.484;2022-07-25T00:30:12;94070.53;;;16.15;100.00
39739;BME280;25422;48.286;8.484;2022-07-25T00:32:37;94074.59;;;16.11;100.00
39739;BME280;25422;48.286;8.484;2022-07-25T00:35:03;94074.19;;;15.94;100.00
39739;BME280;25422;48.286;8.484;2022-07-25T00:37:28;94068.53;;;15.83;100.00
39739;BME280;25422;48.286;8.484;2022-07-25T00:39:54;94064.44;;;15.74;100.00
39739;BME280;25422;48.286;8.484;2022-07-25T00:42:19;94060.19;;;15.73;100.00
39739;BME280;25422;48.286;8.484;2022-07-25T00:44:45;94064.88;;;15.58;100.00
39739;BME280;25422;48.286;8.484;2022-07-25T00:47:11;94057.16;;;15.43;100.00
39739;BME280;25422;48.286;8.484;2022-07-25T00:49:36;94063.22;;;15.30;100.00
39739;BME280;25422;48.286;8.484;2022-07-25T00:52:02;94059.38;;;15.26;100.00
39739;BME280;25422;48.286;8.484;2022-07-25T00:54:28;94059.78;;;15.23;100.00
39739;BME280;25422;48.286;8.484;2022-07-25T00:56:53;94055.94;;;15.25;100.00
39739;BME280;25422;48.286;8.484;2022-07-25T00:59:19;94053.72;;;15.36;100.00
39739;BME280;25422;48.286;8.484;2022-07-25T01:01:44;94055.13;;;15.45;100.00
39739;BME280;25422;48.286;8.484;2022-07-25T01:04:12;94059.59;;;15.44;100.00
39739;BME280;25422;48.286;8.484;2022-07-25T01:06:38;94050.69;;;15.45;100.00
39739;BME280;25422;48.286;8.484;2022-07-25T01:09:03;94045.41;;;15.45;100.00
39739;BME280;25422;48.286;8.484;2022-07-25T01:11:28;94051.06;;;15.42;100.00
39739;BME280;25422;48.286;8.484;2022-07-25T01:13:54;94049.03;;;15.38;100.00
39739;BME280;25422;48.286;8.484;2022-07-25T01:16:19;94048.63;;;15.34;100.00
39739;BME280;25422;48.286;8.484;2022-07-25T01:18:45;94053.72;;;15.36;100.00
39739;BME280;25422;48.286;8.484;2022-07-25T01:21:10;94049.66;;;15.33;100.00
39739;BME280;25422;48.286;8.484;2022-07-25T01:23:36;94054.31;;;15.31;100.00
39739;BME280;25422;48.286;8.484;2022-07-25T01:26:02;94044.16;;;15.21;100.00
39739;BME280;25422;48.286;8.484;2022-07-25T01:28:27;94047.41;;;15.23;100.00
39739;BME280;25422;48.286;8.484;2022-07-25T01:30:52;94040.09;;;15.18;100.00
39739;BME280;25422;48.286;8.484;2022-07-25T01:33:19;94042.53;;;15.13;100.00
39739;BME280;25422;48.286;8.484;2022-07-25T01:35:45;94035.66;;;15.06;100.00
39739;BME280;25422;48.286;8.484;2022-07-25T01:38:12;94037.25;;;15.00;100.00
39739;BME280;25422;48.286;8.484;2022-07-25T01:40:38;94041.91;;;14.98;100.00
39739;BME280;25422;48.286;8.484;2022-07-25T01:43:03;94031.94;;;14.93;100.00
39739;BME280;25422;48.286;8.484;2022-07-25T01:45:29;94029.31;;;14.93;100.00
39739;BME280;25422;48.286;8.484;2022-07-25T01:47:54;94033.00;;;14.92;100.00
39739;BME280;25422;48.286;8.484;2022-07-25T01:50:20;94030.16;;;14.94;100.00
39739;BME280;25422;48.286;8.484;2022-07-25T01:52:45;94030.75;;;14.96;100.00
39739;BME280;25422;48.286;8.484;2022-07-25T01:55:10;94030.94;;;14.94;100.00
39739;BME280;25422;48.286;8.484;2022-07-25T01:57:36;94027.53;;;14.94;100.00
39739;BME280;25422;48.286;8.484;2022-07-25T02:00:04;94014.34;;;14.94;100.00
39739;BME280;25422;48.286;8.484;2022-07-25T02:02:30;94015.56;;;14.91;100.00
39739;BME280;25422;48.286;8.484;2022-07-25T02:04:56;94011.09;;;14.92;100.00
39739;BME280;25422;48.286;8.484;2022-07-25T02:07:21;94014.34;;;14.94;100.00
39739;BME280;25422;48.286;8.484;2022-07-25T02:09:46;94004.00;;;14.92;100.00
39739;BME280;25422;48.286;8.484;2022-07-25T02:12:12;94005.44;;;14.95;100.00
39739;BME280;25422;48.286;8.484;2022-07-25T02:14:37;94000.75;;;14.90;100.00
39739;BME280;25422;48.286;8.484;2022-07-25T02:17:03;94000.97;;;14.89;100.00
39739;BME280;25422;48.286;8.484;2022-07-25T02:19:28;94001.38;;;14.86;100.00
39739;BME280;25422;48.286;8.484;2022-07-25T02:21:54;93998.94;;;14.91;100.00
39739;BME280;25422;48.286;8.484;2022-07-25T02:24:19;93999.75;;;14.91;100.00
39739;BME280;25422;48.286;8.484;2022-07-25T02:26:44;94004.00;;;14.86;100.00
39739;BME280;25422;48.286;8.484;2022-07-25T02:29:10;94000.94;;;14.82;100.00
39739;BME280;25422;48.286;8.484;2022-07-25T02:31:35;93992.63;;;14.78;100.00
39739;BME280;25422;48.286;8.484;2022-07-25T02:34:00;93997.50;;;14.75;100.00
39739;BME280;25422;48.286;8.484;2022-07-25T02:36:26;93996.47;;;14.69;100.00
39739;BME280;25422;48.286;8.484;2022-07-25T02:38:51;93996.06;;;14.65;100.00
39739;BME280;25422;48.286;8.484;2022-07-25T02:41:16;93998.69;;;14.65;100.00
39739;BME280;25422;48.286;8.484;2022-07-25T02:43:42;93995.25;;;14.65;100.00
39739;BME280;25422;48.286;8.484;2022-07-25T02:46:07;93988.97;;;14.66;100.00
39739;BME280;25422;48.286;8.484;2022-07-25T02:48:32;93980.25;;;14.65;100.00
39739;BME280;25422;48.286;8.484;2022-07-25T02:50:58;93985.13;;;14.69;100.00
39739;BME280;25422;48.286;8.484;2022-07-25T02:53:23;93985.94;;;14.69;100.00
39739;BME280;25422;48.286;8.484;2022-07-25T02:55:48;93984.72;;;14.65;100.00
39739;BME280;25422;48.286;8.484;2022-07-25T02:58:13;93977.63;;;14.65;100.00
39739;BME280;25422;48.286;8.484;2022-07-25T03:00:39;93978.63;;;14.64;100.00
39739;BME280;25422;48.286;8.484;2022-07-25T03:03:04;93981.47;;;14.63;100.00
39739;BME280;25422;48.286;8.484;2022-07-25T03:05:30;93981.47;;;14.63;100.00
39739;BME280;25422;48.286;8.484;2022-07-25T03:07:55;93981.47;;;14.63;100.00
39739;BME280;25422;48.286;8.484;2022-07-25T03:10:20;93976.56;;;14.60;100.00
39739;BME280;25422;48.286;8.484;2022-07-25T03:12:46;93971.72;;;14.63;100.00
39739;BME280;25422;48.286;8.484;2022-07-25T03:15:12;93974.75;;;14.60;100.00
39739;BME280;25422;48.286;8.484;2022-07-25T03:17:38;93971.31;;;14.60;100.00
39739;BME280;25422;48.286;8.484;2022-07-25T03:20:07;93966.41;;;14.57;100.00
39739;BME280;25422;48.286;8.484;2022-07-25T03:22:33;93968.66;;;14.53;100.00
39739;BME280;25422;48.286;8.484;2022-07-25T03:24:59;93967.81;;;14.53;100.00
39739;BME280;25422;48.286;8.484;2022-07-25T03:27:24;93974.16;;;14.58;100.00
39739;BME280;25422;48.286;8.484;2022-07-25T03:29:50;93967.47;;;14.62;100.00
39739;BME280;25422;48.286;8.484;2022-07-25T03:32:15;93963.88;;;14.77;100.00
39739;BME280;25422;48.286;8.484;2022-07-25T03:34:40;93962.06;;;14.91;100.00
39739;BME280;25422;48.286;8.484;2022-07-25T03:37:06;93970.56;;;14.99;100.00
39739;BME280;25422;48.286;8.484;2022-07-25T03:39:31;93962.06;;;15.11;100.00
39739;BME280;25422;48.286;8.484;2022-07-25T03:41:57;93957.41;;;15.20;100.00
39739;BME280;25422;48.286;8.484;2022-07-25T03:44:24;93961.06;;;15.18;100.00
39739;BME280;25422;48.286;8.484;2022-07-25T03:46:50;93955.16;;;15.16;100.00
39739;BME280;25422;48.286;8.484;2022-07-25T03:49:16;93956.41;;;15.14;100.00
39739;BME280;25422;48.286;8.484;2022-07-25T03:51:41;93953.75;;;14.94;100.00
39739;BME280;25422;48.286;8.484;2022-07-25T03:54:07;93949.69;;;14.78;100.00
39739;BME280;25422;48.286;8.484;2022-07-25T03:56:39;93950.66;;;14.63;100.00
39739;BME280;25422;48.286;8.484;2022-07-25T03:59:06;93943.94;;;14.61;100.00
39739;BME280;25422;48.286;8.484;2022-07-25T04:01:32;93948.41;;;14.60;100.00
39739;BME280;25422;48.286;8.484;2022-07-25T04:03:57;93949.59;;;14.44;100.00
39739;BME280;25422;48.286;8.484;2022-07-25T04:06:23;93944.34;;;14.51;100.00
39739;BME280;25422;48.286;8.484;2022-07-25T04:08:49;93943.53;;;14.50;100.00
39739;BME280;25422;48.286;8.484;2022-07-25T04:11:14;93952.88;;;14.53;100.00
39739;BME280;25422;48.286;8.484;2022-07-25T04:13:40;93946.41;;;14.62;100.00
39739;BME280;25422;48.286;8.484;2022-07-25T04:16:06;93948.69;;;14.72;100.00
39739;BME280;25422;48.286;8.484;2022-07-25T04:18:31;93951.31;;;14.72;100.00
39739;BME280;25422;48.286;8.484;2022-07-25T04:20:57;93949.69;;;14.71;100.00
39739;BME280;25422;48.286;8.484;2022-07-25T04:23:22;93941.78;;;14.78;100.00
39739;BME280;25422;48.286;8.484;2022-07-25T04:25:47;93937.13;;;14.87;100.00
39739;BME280;25422;48.286;8.484;2022-07-25T04:28:13;93938.34;;;14.97;100.00
39739;BME280;25422;48.286;8.484;2022-07-25T04:30:38;93932.88;;;15.12;100.00
39739;BME280;25422;48.286;8.484;2022-07-25T04:33:03;93940.78;;;15.26;100.00
39739;BME280;25422;48.286;8.484;2022-07-25T04:35:29;93928.41;;;15.46;100.00
39739;BME280;25422;48.286;8.484;2022-07-25T04:37:54;93929.16;;;15.67;100.00
39739;BME280;25422;48.286;8.484;2022-07-25T04:40:19;93930.38;;;15.84;100.00
39739;BME280;25422;48.286;8.484;2022-07-25T04:42:45;93930.47;;;16.03;100.00
39739;BME280;25422;48.286;8.484;2022-07-25T04:45:10;93925.53;;;16.27;100.00
39739;BME280;25422;48.286;8.484;2022-07-25T04:47:36;93922.56;;;16.48;100.00
39739;BME280;25422;48.286;8.484;2022-07-25T04:50:01;93921.03;;;16.66;100.00
39739;BME280;25422;48.286;8.484;2022-07-25T04:52:27;93917.63;;;16.91;100.00
39739;BME280;25422;48.286;8.484;2022-07-25T04:54:52;93919.41;;;17.22;100.00
39739;BME280;25422;48.286;8.484;2022-07-25T04:57:17;93909.09;;;17.58;100.00
39739;BME280;25422;48.286;8.484;2022-07-25T04:59:43;93909.97;;;17.95;100.00
39739;BME280;25422;48.286;8.484;2022-07-25T05:02:08;93912.38;;;18.15;100.00
39739;BME280;25422;48.286;8.484;2022-07-25T05:04:34;93903.41;;;18.47;100.00
39739;BME280;25422;48.286;8.484;2022-07-25T05:06:59;93907.16;;;18.81;100.00
39739;BME280;25422;48.286;8.484;2022-07-25T05:09:24;93906.91;;;19.13;100.00
39739;BME280;25422;48.286;8.484;2022-07-25T05:11:51;93905.66;;;19.51;100.00
39739;BME280;25422;48.286;8.484;2022-07-25T05:14:17;93907.59;;;19.80;99.49
39739;BME280;25422;48.286;8.484;2022-07-25T05:16:42;93910.97;;;19.87;99.99
39739;BME280;25422;48.286;8.484;2022-07-25T05:19:07;93902.97;;;20.68;95.89
39739;BME280;25422;48.286;8.484;2022-07-25T05:21:33;93903.47;;;21.67;88.44
39739;BME280;25422;48.286;8.484;2022-07-25T05:23:59;93890.19;;;22.83;80.62
39739;BME280;25422;48.286;8.484;2022-07-25T05:26:24;93894.75;;;23.53;72.39
39739;BME280;25422;48.286;8.484;2022-07-25T05:28:49;93888.22;;;24.34;67.76
39739;BME280;25422;48.286;8.484;2022-07-25T05:31:14;93890.81;;;25.03;63.58
39739;BME280;25422;48.286;8.484;2022-07-25T05:33:40;93888.09;;;25.59;58.80
39739;BME280;25422;48.286;8.484;2022-07-25T05:36:06;93887.19;;;26.00;56.16
39739;BME280;25422;48.286;8.484;2022-07-25T05:38:33;93882.81;;;26.85;54.06
39739;BME280;25422;48.286;8.484;2022-07-25T05:40:59;93878.19;;;26.96;52.53
39739;BME280;25422;48.286;8.484;2022-07-25T05:43:24;93883.88;;;26.89;52.22
39739;BME280;25422;48.286;8.484;2022-07-25T05:45:50;93875.53;;;27.60;50.13
39739;BME280;25422;48.286;8.484;2022-07-25T05:48:15;93874.53;;;27.80;49.27
39739;BME280;25422;48.286;8.484;2022-07-25T05:50:42;93881.22;;;28.12;48.23
39739;BME280;25422;48.286;8.484;2022-07-25T05:53:07;93875.31;;;28.10;48.83
39739;BME280;25422;48.286;8.484;2022-07-25T05:55:33;93868.16;;;28.24;47.93
39739;BME280;25422;48.286;8.484;2022-07-25T05:57:58;93874.63;;;28.67;46.48
39739;BME280;25422;48.286;8.484;2022-07-25T06:00:24;93870.75;;;29.30;45.66
39739;BME280;25422;48.286;8.484;2022-07-25T06:02:49;93866.16;;;29.44;44.64
39739;BME280;25422;48.286;8.484;2022-07-25T06:05:15;93862.31;;;29.65;43.39
39739;BME280;25422;48.286;8.484;2022-07-25T06:07:40;93859.66;;;29.92;43.64
39739;BME280;25422;48.286;8.484;2022-07-25T06:10:06;93860.72;;;29.64;44.08
39739;BME280;25422;48.286;8.484;2022-07-25T06:12:31;93853.09;;;29.99;42.97
39739;BME280;25422;48.286;8.484;2022-07-25T06:15:00;93854.06;;;30.17;42.96
39739;BME280;25422;48.286;8.484;2022-07-25T06:17:26;93861.34;;;30.30;42.01
39739;BME280;25422;48.286;8.484;2022-07-25T06:19:51;93859.06;;;30.88;40.76
39739;BME280;25422;48.286;8.484;2022-07-25T06:22:16;93848.69;;;30.81;40.64
39739;BME280;25422;48.286;8.484;2022-07-25T06:24:44;93858.22;;;31.01;40.77
39739;BME280;25422;48.286;8.484;2022-07-25T06:27:09;93857.63;;;30.68;40.78
39739;BME280;25422;48.286;8.484;2022-07-25T06:29:34;93857.56;;;30.45;41.88
39739;BME280;25422;48.286;8.484;2022-07-25T06:32:01;93853.66;;;30.23;42.69
39739;BME280;25422;48.286;8.484;2022-07-25T06:34:26;93842.09;;;31.33;40.07
39739;BME280;25422;48.286;8.484;2022-07-25T06:36:52;93849.31;;;31.15;39.92
39739;BME280;25422;48.286;8.484;2022-07-25T06:39:18;93854.56;;;30.83;40.77
39739;BME280;25422;48.286;8.484;2022-07-25T06:41:43;93842.94;;;30.97;41.26
39739;BME280;25422;48.286;8.484;2022-07-25T06:44:08;93843.75;;;31.20;39.74
39739;BME280;25422;48.286;8.484;2022-07-25T06:46:33;93847.97;;;31.57;39.44
39739;BME280;25422;48.286;8.484;2022-07-25T06:48:59;93835.84;;;31.55;38.98
39739;BME280;25422;48.286;8.484;2022-07-25T06:51:24;93838.50;;;31.69;39.31
39739;BME280;25422;48.286;8.484;2022-07-25T06:53:50;93838.94;;;31.62;38.67
39739;BME280;25422;48.286;8.484;2022-07-25T06:56:15;93845.34;;;31.43;38.61
39739;BME280;25422;48.286;8.484;2022-07-25T06:58:40;93840.19;;;31.33;39.26
39739;BME280;25422;48.286;8.484;2022-07-25T07:01:06;93847.22;;;31.66;38.84
39739;BME280;25422;48.286;8.484;2022-07-25T07:03:31;93838.53;;;31.77;38.42
39739;BME280;25422;48.286;8.484;2022-07-25T07:06:06;93842.66;;;31.75;38.13
39739;BME280;25422;48.286;8.484;2022-07-25T07:08:31;93841.97;;;31.38;37.96
39739;BME280;25422;48.286;8.484;2022-07-25T07:10:57;93841.34;;;32.04;37.28
39739;BME280;25422;48.286;8.484;2022-07-25T07:13:23;93837.00;;;32.43;35.67
39739;BME280;25422;48.286;8.484;2022-07-25T07:15:49;93841.06;;;32.98;35.40
39739;BME280;25422;48.286;8.484;2022-07-25T07:18:18;93842.97;;;33.15;35.60
39739;BME280;25422;48.286;8.484;2022-07-25T07:20:44;93835.75;;;34.02;33.59
39739;BME280;25422;48.286;8.484;2022-07-25T07:23:10;93834.06;;;33.88;33.10
39739;BME280;25422;48.286;8.484;2022-07-25T07:25:36;93838.03;;;34.29;32.92
39739;BME280;25422;48.286;8.484;2022-07-25T07:28:02;93839.84;;;34.47;32.21
39739;BME280;25422;48.286;8.484;2022-07-25T07:30:27;93842.72;;;34.11;32.59
39739;BME280;25422;48.286;8.484;2022-07-25T07:32:53;93835.00;;;34.31;32.02
39739;BME280;25422;48.286;8.484;2022-07-25T07:35:18;93841.38;;;34.35;32.64
39739;BME280;25422;48.286;8.484;2022-07-25T07:37:44;93839.28;;;35.47;30.67
39739;BME280;25422;48.286;8.484;2022-07-25T07:40:14;93842.19;;;35.41;29.69
39739;BME280;25422;48.286;8.484;2022-07-25T07:42:41;93826.16;;;35.27;25.81
39739;BME280;25422;48.286;8.484;2022-07-25T07:45:22;93836.06;;;34.90;26.37
39739;BME280;25422;48.286;8.484;2022-07-25T07:47:49;93833.06;;;35.25;25.23
39739;BME280;25422;48.286;8.484;2022-07-25T07:50:17;93830.91;;;35.52;25.28
39739;BME280;25422;48.286;8.484;2022-07-25T07:52:43;93832.13;;;35.21;25.69
39739;BME280;25422;48.286;8.484;2022-07-25T07:55:09;93828.97;;;36.10;24.95
39739;BME280;25422;48.286;8.484;2022-07-25T07:57:53;93828.19;;;35.52;24.58
39739;BME280;25422;48.286;8.484;2022-07-25T08:00:19;93831.19;;;35.84;24.49
39739;BME280;25422;48.286;8.484;2022-07-25T08:02:52;93829.28;;;36.46;23.93
39739;BME280;25422;48.286;8.484;2022-07-25T08:07:52;93834.38;;;35.40;25.61
39739;BME280;25422;48.286;8.484;2022-07-25T08:10:22;93830.28;;;35.12;25.59
39739;BME280;25422;48.286;8.484;2022-07-25T08:12:47;93837.41;;;34.33;26.35
39739;BME280;25422;48.286;8.484;2022-07-25T08:15:13;93838.25;;;34.16;26.22
39739;BME280;25422;48.286;8.484;2022-07-25T08:17:39;93840.53;;;34.05;27.74
39739;BME280;25422;48.286;8.484;2022-07-25T08:20:05;93840.78;;;34.21;27.48
39739;BME280;25422;48.286;8.484;2022-07-25T08:22:41;93845.50;;;34.03;26.94
39739;BME280;25422;48.286;8.484;2022-07-25T08:25:08;93838.13;;;34.12;26.63
39739;BME280;25422;48.286;8.484;2022-07-25T08:27:35;93839.06;;;34.16;26.20
39739;BME280;25422;48.286;8.484;2022-07-25T08:30:03;93847.41;;;34.02;26.27
39739;BME280;25422;48.286;8.484;2022-07-25T08:32:29;93848.66;;;34.14;26.65
39739;BME280;25422;48.286;8.484;2022-07-25T08:34:55;93847.66;;;34.18;26.52
39739;BME280;25422;48.286;8.484;2022-07-25T08:37:21;93844.25;;;33.44;26.88
39739;BME280;25422;48.286;8.484;2022-07-25T08:39:46;93849.88;;;33.86;27.00
39739;BME280;25422;48.286;8.484;2022-07-25T08:42:12;93844.47;;;34.16;26.33
39739;BME280;25422;48.286;8.484;2022-07-25T08:44:41;93843.50;;;33.73;26.48
39739;BME280;25422;48.286;8.484;2022-07-25T08:47:08;93852.31;;;33.61;26.96
39739;BME280;25422;48.286;8.484;2022-07-25T08:49:34;93852.34;;;34.39;26.28
39739;BME280;25422;48.286;8.484;2022-07-25T08:52:02;93845.28;;;35.31;24.66
39739;BME280;25422;48.286;8.484;2022-07-25T08:54:29;93846.34;;;34.84;25.26
39739;BME280;25422;48.286;8.484;2022-07-25T08:56:55;93856.41;;;35.05;24.55
39739;BME280;25422;48.286;8.484;2022-07-25T08:59:20;93851.38;;;35.37;24.59
39739;BME280;25422;48.286;8.484;2022-07-25T09:01:45;93848.91;;;34.59;26.04
39739;BME280;25422;48.286;8.484;2022-07-25T09:04:11;93843.47;;;35.56;24.75
39739;BME280;25422;48.286;8.484;2022-07-25T09:06:48;93836.63;;;36.83;22.58
39739;BME280;25422;48.286;8.484;2022-07-25T09:09:13;93842.22;;;36.00;23.92
39739;BME280;25422;48.286;8.484;2022-07-25T09:11:38;93832.19;;;35.67;23.66
39739;BME280;25422;48.286;8.484;2022-07-25T09:14:06;93842.88;;;35.17;24.43
39739;BME280;25422;48.286;8.484;2022-07-25T09:16:37;93830.41;;;35.83;23.12
39739;BME280;25422;48.286;8.484;2022-07-25T09:21:35;93837.19;;;35.10;24.66
39739;BME280;25422;48.286;8.484;2022-07-25T09:24:27;93831.09;;;36.29;23.39
39739;BME280;25422;48.286;8.484;2022-07-25T09:26:55;93829.28;;;36.58;22.10
39739;BME280;25422;48.286;8.484;2022-07-25T09:29:24;93833.94;;;36.08;23.21
39739;BME280;25422;48.286;8.484;2022-07-25T09:31:51;93825.44;;;36.22;22.78
39739;BME280;25422;48.286;8.484;2022-07-25T09:36:58;93835.22;;;36.48;22.56
39739;BME280;25422;48.286;8.484;2022-07-25T09:39:52;93828.22;;;36.88;21.70
39739;BME280;25422;48.286;8.484;2022-07-25T09:45:15;93832.22;;;37.47;21.49
39739;BME280;25422;48.286;8.484;2022-07-25T09:48:02;93829.69;;;36.85;21.95
39739;BME280;25422;48.286;8.484;2022-07-25T09:50:29;93826.44;;;36.18;22.90
39739;BME280;25422;48.286;8.484;2022-07-25T09:52:57;93831.31;;;37.15;21.65
39739;BME280;25422;48.286;8.484;2022-07-25T09:55:23;93838.47;;;36.04;22.78
39739;BME280;25422;48.286;8.484;2022-07-25T09:57:49;93827.91;;;36.27;22.13
39739;BME280;25422;48.286;8.484;2022-07-25T10:00:25;93830.66;;;36.52;22.13
39739;BME280;25422;48.286;8.484;2022-07-25T10:05:30;93828.41;;;36.42;21.89
39739;BME280;25422;48.286;8.484;2022-07-25T10:08:05;93815.34;;;36.23;22.19
39739;BME280;25422;48.286;8.484;2022-07-25T10:10:37;93829.00;;;37.29;20.81
39739;BME280;25422;48.286;8.484;2022-07-25T10:13:06;93825.09;;;37.02;21.40
39739;BME280;25422;48.286;8.484;2022-07-25T10:18:11;93827.38;;;36.59;21.60
39739;BME280;25422;48.286;8.484;2022-07-25T10:20:37;93817.03;;;36.03;22.12
39739;BME280;25422;48.286;8.484;2022-07-25T10:23:03;93818.09;;;35.65;22.55
39739;BME280;25422;48.286;8.484;2022-07-25T10:25:29;93827.72;;;36.57;22.04
39739;BME280;25422;48.286;8.484;2022-07-25T10:27:59;93816.13;;;36.11;22.02
39739;BME280;25422;48.286;8.484;2022-07-25T10:30:33;93817.38;;;35.89;22.13
39739;BME280;25422;48.286;8.484;2022-07-25T10:33:00;93819.78;;;35.57;22.76
39739;BME280;25422;48.286;8.484;2022-07-25T10:35:27;93815.19;;;35.03;23.15
39739;BME280;25422;48.286;8.484;2022-07-25T10:37:57;93806.16;;;35.90;22.34
39739;BME280;25422;48.286;8.484;2022-07-25T10:40:28;93811.75;;;35.60;22.87
39739;BME280;25422;48.286;8.484;2022-07-25T10:43:13;93806.84;;;35.20;23.35
39739;BME280;25422;48.286;8.484;2022-07-25T10:45:47;93807.66;;;35.21;22.87
39739;BME280;25422;48.286;8.484;2022-07-25T10:48:27;93811.97;;;35.68;22.95
39739;BME280;25422;48.286;8.484;2022-07-25T10:51:05;93792.53;;;35.90;22.17
39739;BME280;25422;48.286;8.484;2022-07-25T10:56:20;93790.06;;;36.35;21.85
39739;BME280;25422;48.286;8.484;2022-07-25T11:01:12;93795.81;;;36.08;22.45
39739;BME280;25422;48.286;8.484;2022-07-25T11:03:41;93791.81;;;35.69;22.71
39739;BME280;25422;48.286;8.484;2022-07-25T11:06:10;93775.50;;;36.31;21.60
39739;BME280;25422;48.286;8.484;2022-07-25T11:08:35;93785.34;;;37.01;21.35
39739;BME280;25422;48.286;8.484;2022-07-25T11:11:01;93788.13;;;36.76;22.03
39739;BME280;25422;48.286;8.484;2022-07-25T11:13:27;93779.94;;;36.10;21.90
39739;BME280;25422;48.286;8.484;2022-07-25T11:15:56;93781.63;;;36.15;21.61
39739;BME280;25422;48.286;8.484;2022-07-25T11:18:40;93767.88;;;36.49;21.22
39739;BME280;25422;48.286;8.484;2022-07-25T11:21:07;93772.09;;;36.46;21.31
39739;BME280;25422;48.286;8.484;2022-07-25T11:23:34;93792.81;;;36.75;20.39
39739;BME280;25422;48.286;8.484;2022-07-25T11:26:07;93785.88;;;36.78;20.33
39739;BME280;25422;48.286;8.484;2022-07-25T11:28:42;93790.06;;;37.16;20.34
39739;BME280;25422;48.286;8.484;2022-07-25T11:31:07;93773.38;;;37.78;19.74
39739;BME280;25422;48.286;8.484;2022-07-25T11:33:34;93777.25;;;37.77;19.65
39739;BME280;25422;48.286;8.484;2022-07-25T11:36:00;93775.75;;;35.76;21.07
39739;BME280;25422;48.286;8.484;2022-07-25T11:38:26;93782.16;;;34.71;22.89
39739;BME280;25422;48.286;8.484;2022-07-25T11:40:51;93780.88;;;35.10;22.96
39739;BME280;25422;48.286;8.484;2022-07-25T11:43:22;93790.81;;;35.73;21.65
39739;BME280;25422;48.286;8.484;2022-07-25T11:45:59;93794.81;;;35.88;21.18
39739;BME280;25422;48.286;8.484;2022-07-25T11:48:33;93788.50;;;35.17;22.07
39739;BME280;25422;48.286;8.484;2022-07-25T11:51:16;93804.19;;;34.57;22.80
39739;BME280;25422;48.286;8.484;2022-07-25T11:53:45;93804.38;;;33.83;23.29
39739;BME280;25422;48.286;8.484;2022-07-25T11:56:11;93801.59;;;33.53;23.94
39739;BME280;25422;48.286;8.484;2022-07-25T11:58:37;93802.91;;;33.47;24.07
39739;BME280;25422;48.286;8.484;2022-07-25T12:01:10;93802.34;;;33.71;24.30
39739;BME280;25422;48.286;8.484;2022-07-25T12:03:37;93795.44;;;33.91;24.52
39739;BME280;25422;48.286;8.484;2022-07-25T12:06:09;93793.97;;;35.29;22.77
39739;BME280;25422;48.286;8.484;2022-07-25T12:08:37;93800.06;;;34.93;22.61
39739;BME280;25422;48.286;8.484;2022-07-25T12:11:03;93803.78;;;34.88;22.41
39739;BME280;25422;48.286;8.484;2022-07-25T12:13:29;93800.66;;;34.77;23.05
39739;BME280;25422;48.286;8.484;2022-07-25T12:15:58;93797.69;;;34.19;24.08
39739;BME280;25422;48.286;8.484;2022-07-25T12:18:25;93797.50;;;33.47;25.38
39739;BME280;25422;48.286;8.484;2022-07-25T12:20:51;93803.25;;;33.37;26.12
39739;BME280;25422;48.286;8.484;2022-07-25T12:23:17;93808.22;;;33.00;26.48
39739;BME280;25422;48.286;8.484;2022-07-25T12:25:45;93801.53;;;32.80;27.30
39739;BME280;25422;48.286;8.484;2022-07-25T12:28:10;93802.78;;;33.26;26.94
39739;BME280;25422;48.286;8.484;2022-07-25T12:30:38;93804.75;;;32.99;27.06
39739;BME280;25422;48.286;8.484;2022-07-25T12:33:04;93801.97;;;33.43;26.98
39739;BME280;25422;48.286;8.484;2022-07-25T12:35:30;93795.84;;;33.64;26.06
39739;BME280;25422;48.286;8.484;2022-07-25T12:37:56;93790.75;;;33.53;26.61
39739;BME280;25422;48.286;8.484;2022-07-25T12:40:22;93797.88;;;33.75;26.74
39739;BME280;25422;48.286;8.484;2022-07-25T12:42:47;93796.22;;;34.52;25.90
39739;BME280;25422;48.286;8.484;2022-07-25T12:45:14;93791.84;;;34.59;24.95
39739;BME280;25422;48.286;8.484;2022-07-25T12:47:42;93788.66;;;35.00;24.77
39739;BME280;25422;48.286;8.484;2022-07-25T12:50:08;93781.69;;;35.44;24.22
39739;BME280;25422;48.286;8.484;2022-07-25T12:52:34;93768.31;;;35.06;24.28
39739;BME280;25422;48.286;8.484;2022-07-25T12:54:59;93788.84;;;34.52;25.36
39739;BME280;25422;48.286;8.484;2022-07-25T12:57:25;93786.75;;;34.79;25.29
39739;BME280;25422;48.286;8.484;2022-07-25T12:59:50;93790.72;;;34.60;25.42
39739;BME280;25422;48.286;8.484;2022-07-25T13:02:15;93789.19;;;33.43;27.19
39739;BME280;25422;48.286;8.484;2022-07-25T13:04:41;93790.63;;;33.41;27.30
39739;BME280;25422;48.286;8.484;2022-07-25T13:07:06;93793.09;;;32.99;27.69
39739;BME280;25422;48.286;8.484;2022-07-25T13:09:32;93789.94;;;32.79;28.24
39739;BME280;25422;48.286;8.484;2022-07-25T13:11:57;93798.78;;;32.36;28.75
39739;BME280;25422;48.286;8.484;2022-07-25T13:14:22;93792.53;;;32.18;29.67